In Rescue
 
Open Full Screen Window  High Contrast Mode
Wind Gusting 00 knots
04
April 19, 2021 9:09 PM CDT
Weather Information
Wind Direction
  320 °
Wind Speed
  04 kt (5 mph)
Wind Gust
  00 kt (0 mph)
Altimeter
30.06 in
Visibility
10 SM
Temperature
02° C
36° F
Dewpoint
-08° C
18° F
Humidity
48%
1hr Rain Fall
00.00 in.
24hr Rain Fall
00.00 in.
Sky Condition
Broken @ 6,500 ft
VFR

METAR KLVN 200209Z AUTO 32004KT 10SM BKN065 02/M08 A3006 RMK AO2

FAA Disclaimer: The data displayed is for advisory purposes only and is not to be used for flight planning or operations.